sensor_id;sensor_type;location;lat;lon;timestamp;temperature;humidity
47310;DHT22;33046;52.270;6.832;2024-03-06T00:00:56;9.80;99.90
47310;DHT22;33046;52.270;6.832;2024-03-06T00:03:03;9.80;99.90
47310;DHT22;33046;52.270;6.832;2024-03-06T00:05:10;9.80;99.90
47310;DHT22;33046;52.270;6.832;2024-03-06T00:07:17;9.80;99.90
47310;DHT22;33046;52.270;6.832;2024-03-06T00:09:24;9.80;99.90
47310;DHT22;33046;52.270;6.832;2024-03-06T00:11:31;9.80;99.90
47310;DHT22;33046;52.270;6.832;2024-03-06T00:13:37;9.80;99.90
47310;DHT22;33046;52.270;6.832;2024-03-06T00:15:44;9.80;99.90
47310;DHT22;33046;52.270;6.832;2024-03-06T00:17:52;9.80;99.90
47310;DHT22;33046;52.270;6.832;2024-03-06T00:19:59;9.80;99.90
47310;DHT22;33046;52.270;6.832;2024-03-06T00:22:06;9.80;99.90
47310;DHT22;33046;52.270;6.832;2024-03-06T00:24:14;9.70;99.90
47310;DHT22;33046;52.270;6.832;2024-03-06T00:26:21;9.70;99.90
47310;DHT22;33046;52.270;6.832;2024-03-06T00:28:28;9.70;99.90
47310;DHT22;33046;52.270;6.832;2024-03-06T00:30:35;9.70;99.90
47310;DHT22;33046;52.270;6.832;2024-03-06T00:32:41;9.70;99.90
47310;DHT22;33046;52.270;6.832;2024-03-06T00:34:50;9.70;99.90
47310;DHT22;33046;52.270;6.832;2024-03-06T00:36:56;9.70;99.90
47310;DHT22;33046;52.270;6.832;2024-03-06T00:39:03;9.70;99.90
47310;DHT22;33046;52.270;6.832;2024-03-06T00:41:10;9.70;99.90
47310;DHT22;33046;52.270;6.832;2024-03-06T00:43:17;9.70;99.90
47310;DHT22;33046;52.270;6.832;2024-03-06T00:45:24;9.70;99.90
47310;DHT22;33046;52.270;6.832;2024-03-06T00:47:31;9.70;99.90
47310;DHT22;33046;52.270;6.832;2024-03-06T00:49:38;9.70;99.90
47310;DHT22;33046;52.270;6.832;2024-03-06T00:51:46;9.70;99.90
47310;DHT22;33046;52.270;6.832;2024-03-06T00:53:53;9.70;99.90
47310;DHT22;33046;52.270;6.832;2024-03-06T00:56:00;9.70;99.90
47310;DHT22;33046;52.270;6.832;2024-03-06T00:58:07;9.70;99.90
47310;DHT22;33046;52.270;6.832;2024-03-06T01:00:15;9.70;99.90
47310;DHT22;33046;52.270;6.832;2024-03-06T01:02:22;9.70;99.90
47310;DHT22;33046;52.270;6.832;2024-03-06T01:04:29;9.70;99.90
47310;DHT22;33046;52.270;6.832;2024-03-06T01:06:36;9.60;99.90
47310;DHT22;33046;52.270;6.832;2024-03-06T01:08:44;9.70;99.90
47310;DHT22;33046;52.270;6.832;2024-03-06T01:10:51;9.70;99.90
47310;DHT22;33046;52.270;6.832;2024-03-06T01:12:57;9.70;99.90
47310;DHT22;33046;52.270;6.832;2024-03-06T01:15:05;9.60;99.90
47310;DHT22;33046;52.270;6.832;2024-03-06T01:17:12;9.60;99.90
47310;DHT22;33046;52.270;6.832;2024-03-06T01:19:19;9.60;99.90
47310;DHT22;33046;52.270;6.832;2024-03-06T01:21:25;9.60;99.90
47310;DHT22;33046;52.270;6.832;2024-03-06T01:23:32;9.70;99.90
47310;DHT22;33046;52.270;6.832;2024-03-06T01:25:40;9.60;99.90
47310;DHT22;33046;52.270;6.832;2024-03-06T01:27:48;9.70;99.90
47310;DHT22;33046;52.270;6.832;2024-03-06T01:29:54;9.60;99.90
47310;DHT22;33046;52.270;6.832;2024-03-06T01:32:01;9.60;99.90
47310;DHT22;33046;52.270;6.832;2024-03-06T01:34:08;9.70;99.90
47310;DHT22;33046;52.270;6.832;2024-03-06T01:36:15;9.70;99.90
47310;DHT22;33046;52.270;6.832;2024-03-06T01:38:22;9.70;99.90
47310;DHT22;33046;52.270;6.832;2024-03-06T01:40:29;9.70;99.90
47310;DHT22;33046;52.270;6.832;2024-03-06T01:42:37;9.70;99.90
47310;DHT22;33046;52.270;6.832;2024-03-06T01:44:46;9.70;99.90
47310;DHT22;33046;52.270;6.832;2024-03-06T01:46:53;9.70;99.90
47310;DHT22;33046;52.270;6.832;2024-03-06T01:49:00;9.60;99.90
47310;DHT22;33046;52.270;6.832;2024-03-06T01:51:09;9.60;99.90
47310;DHT22;33046;52.270;6.832;2024-03-06T01:53:16;9.60;99.90
47310;DHT22;33046;52.270;6.832;2024-03-06T01:55:24;9.60;99.90
47310;DHT22;33046;52.270;6.832;2024-03-06T01:57:31;9.70;99.90
47310;DHT22;33046;52.270;6.832;2024-03-06T01:59:40;9.60;99.90
47310;DHT22;33046;52.270;6.832;2024-03-06T02:01:48;9.60;99.90
47310;DHT22;33046;52.270;6.832;2024-03-06T02:03:56;9.60;99.90
47310;DHT22;33046;52.270;6.832;2024-03-06T02:06:03;9.60;99.90
47310;DHT22;33046;52.270;6.832;2024-03-06T02:08:11;9.60;99.90
47310;DHT22;33046;52.270;6.832;2024-03-06T02:10:18;9.60;99.90
47310;DHT22;33046;52.270;6.832;2024-03-06T02:12:25;9.60;99.90
47310;DHT22;33046;52.270;6.832;2024-03-06T02:14:32;9.60;99.90
47310;DHT22;33046;52.270;6.832;2024-03-06T02:16:40;9.60;99.90
47310;DHT22;33046;52.270;6.832;2024-03-06T02:18:53;9.60;99.90
47310;DHT22;33046;52.270;6.832;2024-03-06T02:21:01;9.60;99.90
47310;DHT22;33046;52.270;6.832;2024-03-06T02:23:08;9.60;99.90
47310;DHT22;33046;52.270;6.832;2024-03-06T02:25:15;9.60;99.90
47310;DHT22;33046;52.270;6.832;2024-03-06T02:27:23;9.60;99.90
47310;DHT22;33046;52.270;6.832;2024-03-06T02:29:29;9.60;99.90
47310;DHT22;33046;52.270;6.832;2024-03-06T02:31:36;9.60;99.90
47310;DHT22;33046;52.270;6.832;2024-03-06T02:33:43;9.60;99.90
47310;DHT22;33046;52.270;6.832;2024-03-06T02:35:50;9.60;99.90
47310;DHT22;33046;52.270;6.832;2024-03-06T02:38:00;9.60;99.90
47310;DHT22;33046;52.270;6.832;2024-03-06T02:40:08;9.60;99.90
47310;DHT22;33046;52.270;6.832;2024-03-06T02:42:14;9.60;99.90
47310;DHT22;33046;52.270;6.832;2024-03-06T02:44:21;9.60;99.90
47310;DHT22;33046;52.270;6.832;2024-03-06T02:46:29;9.60;99.90
47310;DHT22;33046;52.270;6.832;2024-03-06T02:48:36;9.60;99.90
47310;DHT22;33046;52.270;6.832;2024-03-06T02:50:42;9.60;99.90
47310;DHT22;33046;52.270;6.832;2024-03-06T02:52:49;9.60;99.90
47310;DHT22;33046;52.270;6.832;2024-03-06T02:54:58;9.50;99.90
47310;DHT22;33046;52.270;6.832;2024-03-06T02:57:04;9.60;99.90
47310;DHT22;33046;52.270;6.832;2024-03-06T02:59:11;9.50;99.90
47310;DHT22;33046;52.270;6.832;2024-03-06T03:01:18;9.50;99.90
47310;DHT22;33046;52.270;6.832;2024-03-06T03:03:25;9.50;99.90
47310;DHT22;33046;52.270;6.832;2024-03-06T03:05:32;9.60;99.90
47310;DHT22;33046;52.270;6.832;2024-03-06T03:07:39;9.50;99.90
47310;DHT22;33046;52.270;6.832;2024-03-06T03:09:45;9.50;99.90
47310;DHT22;33046;52.270;6.832;2024-03-06T03:11:54;9.50;99.90
47310;DHT22;33046;52.270;6.832;2024-03-06T03:14:00;9.50;99.90
47310;DHT22;33046;52.270;6.832;2024-03-06T03:16:15;9.50;99.90
47310;DHT22;33046;52.270;6.832;2024-03-06T03:18:22;9.50;99.90
47310;DHT22;33046;52.270;6.832;2024-03-06T03:20:29;9.50;99.90
47310;DHT22;33046;52.270;6.832;2024-03-06T03:22:36;9.50;99.90
47310;DHT22;33046;52.270;6.832;2024-03-06T03:24:43;9.50;99.90
47310;DHT22;33046;52.270;6.832;2024-03-06T03:26:50;9.50;99.90
47310;DHT22;33046;52.270;6.832;2024-03-06T03:28:58;9.50;99.90
47310;DHT22;33046;52.270;6.832;2024-03-06T03:31:06;9.50;99.90
47310;DHT22;33046;52.270;6.832;2024-03-06T03:33:12;9.50;99.90
47310;DHT22;33046;52.270;6.832;2024-03-06T03:35:19;9.50;99.90
47310;DHT22;33046;52.270;6.832;2024-03-06T03:37:26;9.50;99.90
47310;DHT22;33046;52.270;6.832;2024-03-06T03:39:33;9.50;99.90
47310;DHT22;33046;52.270;6.832;2024-03-06T03:41:43;9.50;99.90
47310;DHT22;33046;52.270;6.832;2024-03-06T03:43:50;9.50;99.90
47310;DHT22;33046;52.270;6.832;2024-03-06T03:45:58;9.50;99.90
47310;DHT22;33046;52.270;6.832;2024-03-06T03:48:05;9.50;99.90
47310;DHT22;33046;52.270;6.832;2024-03-06T03:50:12;9.50;99.90
47310;DHT22;33046;52.270;6.832;2024-03-06T03:52:19;9.50;99.90
47310;DHT22;33046;52.270;6.832;2024-03-06T03:54:26;9.50;99.90
47310;DHT22;33046;52.270;6.832;2024-03-06T03:56:34;9.50;99.90
47310;DHT22;33046;52.270;6.832;2024-03-06T03:58:41;9.40;99.90
47310;DHT22;33046;52.270;6.832;2024-03-06T04:00:48;9.50;99.90
47310;DHT22;33046;52.270;6.832;2024-03-06T04:02:56;9.50;99.90
47310;DHT22;33046;52.270;6.832;2024-03-06T04:05:03;9.40;99.90
47310;DHT22;33046;52.270;6.832;2024-03-06T04:07:10;9.40;99.90
47310;DHT22;33046;52.270;6.832;2024-03-06T04:09:17;9.50;99.90
47310;DHT22;33046;52.270;6.832;2024-03-06T04:11:24;9.50;99.90
47310;DHT22;33046;52.270;6.832;2024-03-06T04:13:35;9.40;99.90
47310;DHT22;33046;52.270;6.832;2024-03-06T04:15:42;9.40;99.90
47310;DHT22;33046;52.270;6.832;2024-03-06T04:17:50;9.40;99.90
47310;DHT22;33046;52.270;6.832;2024-03-06T04:19:58;9.40;99.90
47310;DHT22;33046;52.270;6.832;2024-03-06T04:22:05;9.40;99.90
47310;DHT22;33046;52.270;6.832;2024-03-06T04:24:12;9.40;99.90
47310;DHT22;33046;52.270;6.832;2024-03-06T04:26:19;9.40;99.90
47310;DHT22;33046;52.270;6.832;2024-03-06T04:28:26;9.40;99.90
47310;DHT22;33046;52.270;6.832;2024-03-06T04:30:32;9.40;99.90
47310;DHT22;33046;52.270;6.832;2024-03-06T04:32:39;9.40;99.90
47310;DHT22;33046;52.270;6.832;2024-03-06T04:34:46;9.40;99.90
47310;DHT22;33046;52.270;6.832;2024-03-06T04:36:54;9.40;99.90
47310;DHT22;33046;52.270;6.832;2024-03-06T04:39:01;9.40;99.90
47310;DHT22;33046;52.270;6.832;2024-03-06T04:41:08;9.40;99.90
47310;DHT22;33046;52.270;6.832;2024-03-06T04:43:15;9.40;99.90
47310;DHT22;33046;52.270;6.832;2024-03-06T04:45:22;9.40;99.90
47310;DHT22;33046;52.270;6.832;2024-03-06T04:47:29;9.40;99.90
47310;DHT22;33046;52.270;6.832;2024-03-06T04:49:36;9.40;99.90
47310;DHT22;33046;52.270;6.832;2024-03-06T04:51:43;9.40;99.90
47310;DHT22;33046;52.270;6.832;2024-03-06T04:53:51;9.40;99.90
47310;DHT22;33046;52.270;6.832;2024-03-06T04:55:58;9.40;99.90
47310;DHT22;33046;52.270;6.832;2024-03-06T04:58:05;9.40;99.90
47310;DHT22;33046;52.270;6.832;2024-03-06T05:00:13;9.40;99.90
47310;DHT22;33046;52.270;6.832;2024-03-06T05:02:19;9.30;99.90
47310;DHT22;33046;52.270;6.832;2024-03-06T05:04:26;9.40;99.90
47310;DHT22;33046;52.270;6.832;2024-03-06T05:06:51;9.40;99.90
47310;DHT22;33046;52.270;6.832;2024-03-06T05:09:16;9.40;99.90
47310;DHT22;33046;52.270;6.832;2024-03-06T05:11:41;9.40;99.90
47310;DHT22;33046;52.270;6.832;2024-03-06T05:14:05;9.40;99.90
47310;DHT22;33046;52.270;6.832;2024-03-06T05:16:30;9.40;99.90
47310;DHT22;33046;52.270;6.832;2024-03-06T05:18:54;9.40;99.90
47310;DHT22;33046;52.270;6.832;2024-03-06T05:21:20;9.30;99.90
47310;DHT22;33046;52.270;6.832;2024-03-06T05:23:44;9.40;99.90
47310;DHT22;33046;52.270;6.832;2024-03-06T05:26:10;9.30;99.90
47310;DHT22;33046;52.270;6.832;2024-03-06T05:28:34;9.30;99.90
47310;DHT22;33046;52.270;6.832;2024-03-06T05:30:59;9.30;99.90
47310;DHT22;33046;52.270;6.832;2024-03-06T05:33:24;9.30;99.90
47310;DHT22;33046;52.270;6.832;2024-03-06T05:35:48;9.30;99.90
47310;DHT22;33046;52.270;6.832;2024-03-06T05:38:12;9.40;99.90
47310;DHT22;33046;52.270;6.832;2024-03-06T05:40:37;9.30;99.90
47310;DHT22;33046;52.270;6.832;2024-03-06T05:43:03;9.30;99.90
47310;DHT22;33046;52.270;6.832;2024-03-06T05:45:27;9.30;99.90
47310;DHT22;33046;52.270;6.832;2024-03-06T05:47:52;9.30;99.90
47310;DHT22;33046;52.270;6.832;2024-03-06T05:50:16;9.30;99.90
47310;DHT22;33046;52.270;6.832;2024-03-06T05:52:41;9.30;99.90
47310;DHT22;33046;52.270;6.832;2024-03-06T05:55:06;9.30;99.90
47310;DHT22;33046;52.270;6.832;2024-03-06T05:57:30;9.30;99.90
47310;DHT22;33046;52.270;6.832;2024-03-06T05:59:56;9.30;99.90
47310;DHT22;33046;52.270;6.832;2024-03-06T06:02:02;9.30;99.90
47310;DHT22;33046;52.270;6.832;2024-03-06T06:04:10;9.30;99.90
47310;DHT22;33046;52.270;6.832;2024-03-06T06:06:17;9.30;99.90
47310;DHT22;33046;52.270;6.832;2024-03-06T06:08:24;9.30;99.90
47310;DHT22;33046;52.270;6.832;2024-03-06T06:10:31;9.30;99.90
47310;DHT22;33046;52.270;6.832;2024-03-06T06:12:37;9.30;99.90
47310;DHT22;33046;52.270;6.832;2024-03-06T06:14:44;9.30;99.90
47310;DHT22;33046;52.270;6.832;2024-03-06T06:16:53;9.30;99.90
47310;DHT22;33046;52.270;6.832;2024-03-06T06:18:59;9.30;99.90
47310;DHT22;33046;52.270;6.832;2024-03-06T06:21:06;9.30;99.90
47310;DHT22;33046;52.270;6.832;2024-03-06T06:23:13;9.30;99.90
47310;DHT22;33046;52.270;6.832;2024-03-06T06:25:20;9.30;99.90
47310;DHT22;33046;52.270;6.832;2024-03-06T06:27:27;9.30;99.90
47310;DHT22;33046;52.270;6.832;2024-03-06T06:29:34;9.30;99.90
47310;DHT22;33046;52.270;6.832;2024-03-06T06:31:40;9.30;99.90
47310;DHT22;33046;52.270;6.832;2024-03-06T06:33:49;9.30;99.90
47310;DHT22;33046;52.270;6.832;2024-03-06T06:35:55;9.30;99.90
47310;DHT22;33046;52.270;6.832;2024-03-06T06:38:02;9.30;99.90
47310;DHT22;33046;52.270;6.832;2024-03-06T06:40:10;9.30;99.90
47310;DHT22;33046;52.270;6.832;2024-03-06T06:42:17;9.30;99.90
47310;DHT22;33046;52.270;6.832;2024-03-06T06:44:24;9.30;99.90
47310;DHT22;33046;52.270;6.832;2024-03-06T06:46:31;9.30;99.90
47310;DHT22;33046;52.270;6.832;2024-03-06T06:48:38;9.30;99.90
47310;DHT22;33046;52.270;6.832;2024-03-06T06:50:46;9.30;99.90
47310;DHT22;33046;52.270;6.832;2024-03-06T06:52:53;9.30;99.90
47310;DHT22;33046;52.270;6.832;2024-03-06T06:55:00;9.30;99.90
47310;DHT22;33046;52.270;6.832;2024-03-06T06:57:07;9.30;99.90
47310;DHT22;33046;52.270;6.832;2024-03-06T06:59:13;9.30;99.90
47310;DHT22;33046;52.270;6.832;2024-03-06T07:01:20;9.30;99.90
47310;DHT22;33046;52.270;6.832;2024-03-06T07:03:27;9.30;99.90
47310;DHT22;33046;52.270;6.832;2024-03-06T07:05:34;9.30;99.90
47310;DHT22;33046;52.270;6.832;2024-03-06T07:07:42;9.30;99.90
47310;DHT22;33046;52.270;6.832;2024-03-06T07:09:49;9.30;99.90
47310;DHT22;33046;52.270;6.832;2024-03-06T07:11:56;9.40;99.90
47310;DHT22;33046;52.270;6.832;2024-03-06T07:14:03;9.30;99.90
47310;DHT22;33046;52.270;6.832;2024-03-06T07:16:09;9.40;99.90
47310;DHT22;33046;52.270;6.832;2024-03-06T07:18:16;9.40;99.90
47310;DHT22;33046;52.270;6.832;2024-03-06T07:20:23;9.40;99.90
47310;DHT22;33046;52.270;6.832;2024-03-06T07:22:30;9.40;99.90
47310;DHT22;33046;52.270;6.832;2024-03-06T07:24:38;9.40;99.90
47310;DHT22;33046;52.270;6.832;2024-03-06T07:26:45;9.40;99.90
47310;DHT22;33046;52.270;6.832;2024-03-06T07:28:52;9.40;99.90
47310;DHT22;33046;52.270;6.832;2024-03-06T07:30:59;9.40;99.90
47310;DHT22;33046;52.270;6.832;2024-03-06T07:33:06;9.40;99.90
47310;DHT22;33046;52.270;6.832;2024-03-06T07:35:12;9.40;99.90
47310;DHT22;33046;52.270;6.832;2024-03-06T07:37:19;9.50;99.90
47310;DHT22;33046;52.270;6.832;2024-03-06T07:39:26;9.50;99.90
47310;DHT22;33046;52.270;6.832;2024-03-06T07:41:34;9.50;99.90
47310;DHT22;33046;52.270;6.832;2024-03-06T07:43:41;9.50;99.90
47310;DHT22;33046;52.270;6.832;2024-03-06T07:45:48;9.50;99.90
47310;DHT22;33046;52.270;6.832;2024-03-06T07:47:55;9.50;99.90
47310;DHT22;33046;52.270;6.832;2024-03-06T07:50:02;9.50;99.90
47310;DHT22;33046;52.270;6.832;2024-03-06T07:52:09;9.60;99.90
47310;DHT22;33046;52.270;6.832;2024-03-06T07:54:16;9.60;99.90
47310;DHT22;33046;52.270;6.832;2024-03-06T07:56:24;9.60;99.90
47310;DHT22;33046;52.270;6.832;2024-03-06T07:58:32;9.60;99.90
47310;DHT22;33046;52.270;6.832;2024-03-06T08:00:39;9.70;99.90
47310;DHT22;33046;52.270;6.832;2024-03-06T08:02:46;9.70;99.90
47310;DHT22;33046;52.270;6.832;2024-03-06T08:04:53;9.70;99.90
47310;DHT22;33046;52.270;6.832;2024-03-06T08:07:00;9.70;99.90
47310;DHT22;33046;52.270;6.832;2024-03-06T08:09:07;9.70;99.90
47310;DHT22;33046;52.270;6.832;2024-03-06T08:11:13;9.70;99.90
47310;DHT22;33046;52.270;6.832;2024-03-06T08:13:20;9.80;99.90
47310;DHT22;33046;52.270;6.832;2024-03-06T08:15:29;9.80;99.90
47310;DHT22;33046;52.270;6.832;2024-03-06T08:17:35;9.80;99.90
47310;DHT22;33046;52.270;6.832;2024-03-06T08:19:42;9.80;99.90
47310;DHT22;33046;52.270;6.832;2024-03-06T08:21:49;9.80;99.90
47310;DHT22;33046;52.270;6.832;2024-03-06T08:23:56;9.90;99.90
47310;DHT22;33046;52.270;6.832;2024-03-06T08:26:03;9.90;99.90
47310;DHT22;33046;52.270;6.832;2024-03-06T08:28:10;9.90;99.90
47310;DHT22;33046;52.270;6.832;2024-03-06T08:30:17;9.90;99.90
47310;DHT22;33046;52.270;6.832;2024-03-06T08:32:25;10.00;99.90
47310;DHT22;33046;52.270;6.832;2024-03-06T08:34:32;10.00;99.90
47310;DHT22;33046;52.270;6.832;2024-03-06T08:36:39;10.00;99.90
47310;DHT22;33046;52.270;6.832;2024-03-06T08:38:46;10.00;99.90
47310;DHT22;33046;52.270;6.832;2024-03-06T08:40:53;10.10;99.90
47310;DHT22;33046;52.270;6.832;2024-03-06T08:43:00;10.10;99.90
47310;DHT22;33046;52.270;6.832;2024-03-06T08:45:07;10.10;99.90
47310;DHT22;33046;52.270;6.832;2024-03-06T08:47:14;10.10;99.90
47310;DHT22;33046;52.270;6.832;2024-03-06T08:49:22;10.10;99.90
47310;DHT22;33046;52.270;6.832;2024-03-06T08:51:29;10.10;99.90
47310;DHT22;33046;52.270;6.832;2024-03-06T08:53:36;10.10;99.90
47310;DHT22;33046;52.270;6.832;2024-03-06T08:55:42;10.10;99.90
47310;DHT22;33046;52.270;6.832;2024-03-06T08:57:49;10.10;99.90
47310;DHT22;33046;52.270;6.832;2024-03-06T08:59:56;10.20;99.90
47310;DHT22;33046;52.270;6.832;2024-03-06T09:02:12;10.10;99.90
47310;DHT22;33046;52.270;6.832;2024-03-06T09:04:19;10.20;99.90
47310;DHT22;33046;52.270;6.832;2024-03-06T09:06:27;10.20;99.90
47310;DHT22;33046;52.270;6.832;2024-03-06T09:08:34;10.30;99.90
47310;DHT22;33046;52.270;6.832;2024-03-06T09:10:41;10.30;99.90
47310;DHT22;33046;52.270;6.832;2024-03-06T09:12:48;10.30;99.90
47310;DHT22;33046;52.270;6.832;2024-03-06T09:14:55;10.30;99.90
47310;DHT22;33046;52.270;6.832;2024-03-06T09:17:02;10.30;99.90
47310;DHT22;33046;52.270;6.832;2024-03-06T09:19:09;10.40;99.90
47310;DHT22;33046;52.270;6.832;2024-03-06T09:21:16;10.40;99.90
47310;DHT22;33046;52.270;6.832;2024-03-06T09:23:24;10.40;99.90
47310;DHT22;33046;52.270;6.832;2024-03-06T09:25:31;10.40;99.90
47310;DHT22;33046;52.270;6.832;2024-03-06T09:27:38;10.50;99.90
47310;DHT22;33046;52.270;6.832;2024-03-06T09:29:45;10.50;99.90
47310;DHT22;33046;52.270;6.832;2024-03-06T09:31:51;10.50;99.90
47310;DHT22;33046;52.270;6.832;2024-03-06T09:33:58;10.50;99.90
47310;DHT22;33046;52.270;6.832;2024-03-06T09:36:06;10.60;99.90
47310;DHT22;33046;52.270;6.832;2024-03-06T09:38:13;10.60;99.90
47310;DHT22;33046;52.270;6.832;2024-03-06T09:40:23;10.60;99.90
47310;DHT22;33046;52.270;6.832;2024-03-06T09:42:30;10.60;99.90
47310;DHT22;33046;52.270;6.832;2024-03-06T09:44:37;10.70;99.90
47310;DHT22;33046;52.270;6.832;2024-03-06T09:46:45;10.70;99.90
47310;DHT22;33046;52.270;6.832;2024-03-06T09:48:52;10.70;99.90
47310;DHT22;33046;52.270;6.832;2024-03-06T09:51:01;10.70;99.90
47310;DHT22;33046;52.270;6.832;2024-03-06T09:53:10;10.70;99.90
47310;DHT22;33046;52.270;6.832;2024-03-06T09:55:19;10.80;99.90
47310;DHT22;33046;52.270;6.832;2024-03-06T09:57:27;10.80;99.90
47310;DHT22;33046;52.270;6.832;2024-03-06T09:59:34;10.80;99.90
47310;DHT22;33046;52.270;6.832;2024-03-06T10:01:52;10.80;99.90
47310;DHT22;33046;52.270;6.832;2024-03-06T10:04:00;10.80;99.90
47310;DHT22;33046;52.270;6.832;2024-03-06T10:06:23;10.90;99.90
47310;DHT22;33046;52.270;6.832;2024-03-06T10:08:30;10.90;99.90
47310;DHT22;33046;52.270;6.832;2024-03-06T10:10:36;10.90;99.90
47310;DHT22;33046;52.270;6.832;2024-03-06T10:12:46;11.00;99.90
47310;DHT22;33046;52.270;6.832;2024-03-06T10:14:53;11.00;99.90
47310;DHT22;33046;52.270;6.832;2024-03-06T10:17:00;11.00;99.90
47310;DHT22;33046;52.270;6.832;2024-03-06T10:19:16;11.00;99.90
47310;DHT22;33046;52.270;6.832;2024-03-06T10:21:30;11.00;99.90
47310;DHT22;33046;52.270;6.832;2024-03-06T10:23:37;11.10;99.90
47310;DHT22;33046;52.270;6.832;2024-03-06T10:25:44;11.10;99.90
47310;DHT22;33046;52.270;6.832;2024-03-06T10:28:07;11.10;99.90
47310;DHT22;33046;52.270;6.832;2024-03-06T10:30:14;11.20;99.90
47310;DHT22;33046;52.270;6.832;2024-03-06T10:32:21;11.30;99.90
47310;DHT22;33046;52.270;6.832;2024-03-06T10:34:29;11.40;99.90
47310;DHT22;33046;52.270;6.832;2024-03-06T10:36:36;11.40;99.90
47310;DHT22;33046;52.270;6.832;2024-03-06T10:38:44;11.40;99.90
47310;DHT22;33046;52.270;6.832;2024-03-06T10:40:51;11.40;99.90
47310;DHT22;33046;52.270;6.832;2024-03-06T10:42:58;11.50;99.90
47310;DHT22;33046;52.270;6.832;2024-03-06T10:45:08;11.60;99.90
47310;DHT22;33046;52.270;6.832;2024-03-06T10:47:17;11.60;99.90
47310;DHT22;33046;52.270;6.832;2024-03-06T10:49:25;11.70;99.90
47310;DHT22;33046;52.270;6.832;2024-03-06T10:51:32;11.70;99.90
47310;DHT22;33046;52.270;6.832;2024-03-06T10:53:40;11.80;99.90
47310;DHT22;33046;52.270;6.832;2024-03-06T10:55:49;11.80;99.90
47310;DHT22;33046;52.270;6.832;2024-03-06T10:57:57;11.90;99.90
47310;DHT22;33046;52.270;6.832;2024-03-06T11:00:07;11.90;99.90
47310;DHT22;33046;52.270;6.832;2024-03-06T11:02:14;11.90;99.90
47310;DHT22;33046;52.270;6.832;2024-03-06T11:04:24;12.00;99.90
47310;DHT22;33046;52.270;6.832;2024-03-06T11:06:32;12.00;99.90
47310;DHT22;33046;52.270;6.832;2024-03-06T11:08:38;12.00;99.90
47310;DHT22;33046;52.270;6.832;2024-03-06T11:10:45;12.00;99.90
47310;DHT22;33046;52.270;6.832;2024-03-06T11:12:52;12.00;99.90
47310;DHT22;33046;52.270;6.832;2024-03-06T11:14:59;11.90;99.90
47310;DHT22;33046;52.270;6.832;2024-03-06T11:17:09;11.90;99.90
47310;DHT22;33046;52.270;6.832;2024-03-06T11:19:16;11.90;99.90
47310;DHT22;33046;52.270;6.832;2024-03-06T11:21:29;11.90;99.90
47310;DHT22;33046;52.270;6.832;2024-03-06T11:23:36;11.90;99.90
47310;DHT22;33046;52.270;6.832;2024-03-06T11:26:03;11.90;99.90
47310;DHT22;33046;52.270;6.832;2024-03-06T11:28:10;11.90;99.90
47310;DHT22;33046;52.270;6.832;2024-03-06T11:30:20;11.90;99.90
47310;DHT22;33046;52.270;6.832;2024-03-06T11:32:28;11.90;99.90
47310;DHT22;33046;52.270;6.832;2024-03-06T11:34:36;11.90;99.90
47310;DHT22;33046;52.270;6.832;2024-03-06T11:36:42;11.90;99.90
47310;DHT22;33046;52.270;6.832;2024-03-06T11:38:53;11.80;99.90
47310;DHT22;33046;52.270;6.832;2024-03-06T11:41:02;11.90;99.90
47310;DHT22;33046;52.270;6.832;2024-03-06T11:43:23;11.90;99.90
47310;DHT22;33046;52.270;6.832;2024-03-06T11:45:31;11.90;99.90
47310;DHT22;33046;52.270;6.832;2024-03-06T11:47:57;11.80;99.90
47310;DHT22;33046;52.270;6.832;2024-03-06T11:50:06;11.90;99.90
47310;DHT22;33046;52.270;6.832;2024-03-06T11:52:15;11.90;99.90
47310;DHT22;33046;52.270;6.832;2024-03-06T11:54:23;11.80;99.90
47310;DHT22;33046;52.270;6.832;2024-03-06T11:56:29;11.80;99.90
47310;DHT22;33046;52.270;6.832;2024-03-06T11:58:36;11.90;99.90
47310;DHT22;33046;52.270;6.832;2024-03-06T12:00:43;11.80;99.90
47310;DHT22;33046;52.270;6.832;2024-03-06T12:02:50;11.70;99.90
47310;DHT22;33046;52.270;6.832;2024-03-06T12:05:02;11.80;99.90
47310;DHT22;33046;52.270;6.832;2024-03-06T12:07:09;11.80;99.90
47310;DHT22;33046;52.270;6.832;2024-03-06T12:09:16;11.80;99.90
47310;DHT22;33046;52.270;6.832;2024-03-06T12:11:23;11.80;99.90
47310;DHT22;33046;52.270;6.832;2024-03-06T12:13:30;11.80;99.90
47310;DHT22;33046;52.270;6.832;2024-03-06T12:15:37;11.90;99.90
47310;DHT22;33046;52.270;6.832;2024-03-06T12:17:44;11.90;99.90
47310;DHT22;33046;52.270;6.832;2024-03-06T12:19:51;11.90;99.90
47310;DHT22;33046;52.270;6.832;2024-03-06T12:22:03;11.90;99.90
47310;DHT22;33046;52.270;6.832;2024-03-06T12:24:10;11.90;99.90
47310;DHT22;33046;52.270;6.832;2024-03-06T12:26:22;11.80;99.90
47310;DHT22;33046;52.270;6.832;2024-03-06T12:28:29;11.90;99.90
47310;DHT22;33046;52.270;6.832;2024-03-06T12:30:41;11.80;99.90
47310;DHT22;33046;52.270;6.832;2024-03-06T12:32:56;11.80;99.90
47310;DHT22;33046;52.270;6.832;2024-03-06T12:35:04;11.90;99.90
47310;DHT22;33046;52.270;6.832;2024-03-06T12:37:12;11.80;99.90
47310;DHT22;33046;52.270;6.832;2024-03-06T12:39:19;11.80;99.90
47310;DHT22;33046;52.270;6.832;2024-03-06T12:41:26;11.80;99.90
47310;DHT22;33046;52.270;6.832;2024-03-06T12:43:33;11.80;99.90
47310;DHT22;33046;52.270;6.832;2024-03-06T12:45:40;11.80;99.90
47310;DHT22;33046;52.270;6.832;2024-03-06T12:47:47;11.80;99.90
47310;DHT22;33046;52.270;6.832;2024-03-06T12:49:54;11.80;99.90
47310;DHT22;33046;52.270;6.832;2024-03-06T12:52:01;11.80;99.90
47310;DHT22;33046;52.270;6.832;2024-03-06T12:54:09;11.80;99.90
47310;DHT22;33046;52.270;6.832;2024-03-06T12:56:16;11.80;99.90
47310;DHT22;33046;52.270;6.832;2024-03-06T12:58:23;11.90;99.90
47310;DHT22;33046;52.270;6.832;2024-03-06T13:00:30;11.90;99.90
47310;DHT22;33046;52.270;6.832;2024-03-06T13:02:37;12.00;99.90
47310;DHT22;33046;52.270;6.832;2024-03-06T13:04:44;12.10;99.90
47310;DHT22;33046;52.270;6.832;2024-03-06T13:06:50;12.20;99.90
47310;DHT22;33046;52.270;6.832;2024-03-06T13:08:57;12.10;99.90
47310;DHT22;33046;52.270;6.832;2024-03-06T13:11:05;12.30;99.90
47310;DHT22;33046;52.270;6.832;2024-03-06T13:13:12;12.30;99.90
47310;DHT22;33046;52.270;6.832;2024-03-06T13:15:19;12.40;99.90
47310;DHT22;33046;52.270;6.832;2024-03-06T13:17:26;12.40;99.90
47310;DHT22;33046;52.270;6.832;2024-03-06T13:19:33;12.50;99.90
47310;DHT22;33046;52.270;6.832;2024-03-06T13:21:39;12.60;99.90
47310;DHT22;33046;52.270;6.832;2024-03-06T13:23:46;12.60;99.90
47310;DHT22;33046;52.270;6.832;2024-03-06T13:25:53;12.70;99.90
47310;DHT22;33046;52.270;6.832;2024-03-06T13:28:01;12.80;99.90
47310;DHT22;33046;52.270;6.832;2024-03-06T13:30:09;12.80;99.90
47310;DHT22;33046;52.270;6.832;2024-03-06T13:32:16;12.70;99.90
47310;DHT22;33046;52.270;6.832;2024-03-06T13:34:23;12.60;99.90
47310;DHT22;33046;52.270;6.832;2024-03-06T13:36:30;12.70;99.90
47310;DHT22;33046;52.270;6.832;2024-03-06T13:38:36;12.60;99.90
47310;DHT22;33046;52.270;6.832;2024-03-06T13:40:43;12.60;99.90